sensor_id;sensor_type;location;lat;lon;timestamp;P1;P2;P0
53634;PMS5003;39542;-34.932;138.594;2022-07-06T00:00:09;11.0;11.0;
53634;PMS5003;39542;-34.932;138.594;2022-07-06T00:00:44;9.0;9.0;
53634;PMS5003;39542;-34.932;138.594;2022-07-06T00:01:18;10.0;10.0;
53634;PMS5003;39542;-34.932;138.594;2022-07-06T00:01:54;9.0;8.0;
53634;PMS5003;39542;-34.932;138.594;2022-07-06T00:02:29;11.0;10.0;
53634;PMS5003;39542;-34.932;138.594;2022-07-06T00:03:03;8.0;8.0;
53634;PMS5003;39542;-34.932;138.594;2022-07-06T00:03:38;8.0;8.0;
53634;PMS5003;39542;-34.932;138.594;2022-07-06T00:04:12;6.0;6.0;
53634;PMS5003;39542;-34.932;138.594;2022-07-06T00:04:46;9.0;9.0;
53634;PMS5003;39542;-34.932;138.594;2022-07-06T00:05:21;10.0;10.0;
53634;PMS5003;39542;-34.932;138.594;2022-07-06T00:05:57;10.0;10.0;
53634;PMS5003;39542;-34.932;138.594;2022-07-06T00:06:31;8.0;8.0;
53634;PMS5003;39542;-34.932;138.594;2022-07-06T00:07:05;8.0;8.0;
53634;PMS5003;39542;-34.932;138.594;2022-07-06T00:07:39;10.0;9.0;
53634;PMS5003;39542;-34.932;138.594;2022-07-06T00:08:14;6.0;6.0;
53634;PMS5003;39542;-34.932;138.594;2022-07-06T00:08:49;9.0;9.0;
53634;PMS5003;39542;-34.932;138.594;2022-07-06T00:09:24;8.0;8.0;
53634;PMS5003;39542;-34.932;138.594;2022-07-06T00:09:58;8.0;8.0;
53634;PMS5003;39542;-34.932;138.594;2022-07-06T00:10:32;9.0;8.0;
53634;PMS5003;39542;-34.932;138.594;2022-07-06T00:11:07;11.0;8.0;
53634;PMS5003;39542;-34.932;138.594;2022-07-06T00:11:42;10.0;9.0;
53634;PMS5003;39542;-34.932;138.594;2022-07-06T00:12:17;8.0;8.0;
53634;PMS5003;39542;-34.932;138.594;2022-07-06T00:12:51;8.0;8.0;
53634;PMS5003;39542;-34.932;138.594;2022-07-06T00:13:26;10.0;10.0;
53634;PMS5003;39542;-34.932;138.594;2022-07-06T00:14:00;6.0;6.0;
53634;PMS5003;39542;-34.932;138.594;2022-07-06T00:14:35;8.0;8.0;
53634;PMS5003;39542;-34.932;138.594;2022-07-06T00:15:09;9.0;9.0;
53634;PMS5003;39542;-34.932;138.594;2022-07-06T00:15:44;8.0;8.0;
53634;PMS5003;39542;-34.932;138.594;2022-07-06T00:16:20;7.0;7.0;
53634;PMS5003;39542;-34.932;138.594;2022-07-06T00:16:55;9.0;9.0;
53634;PMS5003;39542;-34.932;138.594;2022-07-06T00:17:29;8.0;8.0;
53634;PMS5003;39542;-34.932;138.594;2022-07-06T00:18:03;7.0;7.0;
53634;PMS5003;39542;-34.932;138.594;2022-07-06T00:18:38;7.0;7.0;
53634;PMS5003;39542;-34.932;138.594;2022-07-06T00:19:13;10.0;9.0;
53634;PMS5003;39542;-34.932;138.594;2022-07-06T00:19:48;8.0;8.0;
53634;PMS5003;39542;-34.932;138.594;2022-07-06T00:20:22;7.0;7.0;
53634;PMS5003;39542;-34.932;138.594;2022-07-06T00:20:56;8.0;8.0;
53634;PMS5003;39542;-34.932;138.594;2022-07-06T00:21:31;8.0;8.0;
53634;PMS5003;39542;-34.932;138.594;2022-07-06T00:22:05;13.0;10.0;
53634;PMS5003;39542;-34.932;138.594;2022-07-06T00:22:40;8.0;7.0;
53634;PMS5003;39542;-34.932;138.594;2022-07-06T00:23:14;8.0;8.0;
53634;PMS5003;39542;-34.932;138.594;2022-07-06T00:23:48;8.0;7.0;
53634;PMS5003;39542;-34.932;138.594;2022-07-06T00:24:23;6.0;5.0;
53634;PMS5003;39542;-34.932;138.594;2022-07-06T00:24:57;7.0;6.0;
53634;PMS5003;39542;-34.932;138.594;2022-07-06T00:25:31;8.0;8.0;
53634;PMS5003;39542;-34.932;138.594;2022-07-06T00:26:06;9.0;9.0;
53634;PMS5003;39542;-34.932;138.594;2022-07-06T00:26:41;8.0;8.0;
53634;PMS5003;39542;-34.932;138.594;2022-07-06T00:27:16;7.0;7.0;
53634;PMS5003;39542;-34.932;138.594;2022-07-06T00:27:50;6.0;6.0;
53634;PMS5003;39542;-34.932;138.594;2022-07-06T00:28:24;7.0;7.0;
53634;PMS5003;39542;-34.932;138.594;2022-07-06T00:28:59;8.0;7.0;
53634;PMS5003;39542;-34.932;138.594;2022-07-06T00:29:33;9.0;9.0;
53634;PMS5003;39542;-34.932;138.594;2022-07-06T00:30:08;7.0;6.0;
53634;PMS5003;39542;-34.932;138.594;2022-07-06T00:30:43;8.0;6.0;
53634;PMS5003;39542;-34.932;138.594;2022-07-06T00:31:18;7.0;7.0;
53634;PMS5003;39542;-34.932;138.594;2022-07-06T00:31:52;5.0;5.0;
53634;PMS5003;39542;-34.932;138.594;2022-07-06T00:32:26;9.0;8.0;
53634;PMS5003;39542;-34.932;138.594;2022-07-06T00:33:01;7.0;7.0;
53634;PMS5003;39542;-34.932;138.594;2022-07-06T00:33:35;6.0;6.0;
53634;PMS5003;39542;-34.932;138.594;2022-07-06T00:34:10;9.0;8.0;
53634;PMS5003;39542;-34.932;138.594;2022-07-06T00:34:44;9.0;9.0;
53634;PMS5003;39542;-34.932;138.594;2022-07-06T00:35:18;8.0;7.0;
53634;PMS5003;39542;-34.932;138.594;2022-07-06T00:35:53;6.0;6.0;
53634;PMS5003;39542;-34.932;138.594;2022-07-06T00:36:29;7.0;7.0;
53634;PMS5003;39542;-34.932;138.594;2022-07-06T00:37:04;5.0;5.0;
53634;PMS5003;39542;-34.932;138.594;2022-07-06T00:37:38;9.0;8.0;
53634;PMS5003;39542;-34.932;138.594;2022-07-06T00:38:12;6.0;6.0;
53634;PMS5003;39542;-34.932;138.594;2022-07-06T00:38:47;7.0;6.0;
53634;PMS5003;39542;-34.932;138.594;2022-07-06T00:39:21;5.0;5.0;
53634;PMS5003;39542;-34.932;138.594;2022-07-06T00:39:55;7.0;7.0;
53634;PMS5003;39542;-34.932;138.594;2022-07-06T00:40:30;6.0;6.0;
53634;PMS5003;39542;-34.932;138.594;2022-07-06T00:41:04;9.0;9.0;
53634;PMS5003;39542;-34.932;138.594;2022-07-06T00:41:39;7.0;7.0;
53634;PMS5003;39542;-34.932;138.594;2022-07-06T00:42:14;7.0;7.0;
53634;PMS5003;39542;-34.932;138.594;2022-07-06T00:42:48;8.0;8.0;
53634;PMS5003;39542;-34.932;138.594;2022-07-06T00:43:23;8.0;7.0;
53634;PMS5003;39542;-34.932;138.594;2022-07-06T00:43:57;4.0;4.0;
53634;PMS5003;39542;-34.932;138.594;2022-07-06T00:44:32;8.0;7.0;
53634;PMS5003;39542;-34.932;138.594;2022-07-06T00:45:06;8.0;8.0;
53634;PMS5003;39542;-34.932;138.594;2022-07-06T00:45:41;6.0;6.0;
53634;PMS5003;39542;-34.932;138.594;2022-07-06T00:46:16;5.0;5.0;
53634;PMS5003;39542;-34.932;138.594;2022-07-06T00:46:53;8.0;7.0;
53634;PMS5003;39542;-34.932;138.594;2022-07-06T00:47:27;7.0;7.0;
53634;PMS5003;39542;-34.932;138.594;2022-07-06T00:48:01;6.0;6.0;
53634;PMS5003;39542;-34.932;138.594;2022-07-06T00:48:36;5.0;5.0;
53634;PMS5003;39542;-34.932;138.594;2022-07-06T00:49:10;7.0;7.0;
53634;PMS5003;39542;-34.932;138.594;2022-07-06T00:49:44;6.0;6.0;
53634;PMS5003;39542;-34.932;138.594;2022-07-06T00:50:19;9.0;9.0;
53634;PMS5003;39542;-34.932;138.594;2022-07-06T00:50:54;6.0;6.0;
53634;PMS5003;39542;-34.932;138.594;2022-07-06T00:51:29;7.0;7.0;
53634;PMS5003;39542;-34.932;138.594;2022-07-06T00:52:07;6.0;6.0;
53634;PMS5003;39542;-34.932;138.594;2022-07-06T00:52:43;5.0;5.0;
53634;PMS5003;39542;-34.932;138.594;2022-07-06T00:53:18;8.0;7.0;
53634;PMS5003;39542;-34.932;138.594;2022-07-06T00:53:54;6.0;6.0;
53634;PMS5003;39542;-34.932;138.594;2022-07-06T00:54:30;8.0;6.0;
53634;PMS5003;39542;-34.932;138.594;2022-07-06T00:55:06;9.0;6.0;
53634;PMS5003;39542;-34.932;138.594;2022-07-06T00:55:41;6.0;6.0;
53634;PMS5003;39542;-34.932;138.594;2022-07-06T00:56:16;7.0;7.0;
53634;PMS5003;39542;-34.932;138.594;2022-07-06T00:56:51;7.0;7.0;
53634;PMS5003;39542;-34.932;138.594;2022-07-06T00:57:27;8.0;7.0;
53634;PMS5003;39542;-34.932;138.594;2022-07-06T00:58:01;8.0;7.0;
53634;PMS5003;39542;-34.932;138.594;2022-07-06T00:58:37;7.0;7.0;
53634;PMS5003;39542;-34.932;138.594;2022-07-06T00:59:11;6.0;6.0;
53634;PMS5003;39542;-34.932;138.594;2022-07-06T00:59:46;8.0;8.0;
53634;PMS5003;39542;-34.932;138.594;2022-07-06T01:00:21;4.0;4.0;
53634;PMS5003;39542;-34.932;138.594;2022-07-06T01:00:57;8.0;8.0;
53634;PMS5003;39542;-34.932;138.594;2022-07-06T01:01:31;7.0;6.0;
53634;PMS5003;39542;-34.932;138.594;2022-07-06T01:02:05;9.0;9.0;
53634;PMS5003;39542;-34.932;138.594;2022-07-06T01:02:39;6.0;6.0;
53634;PMS5003;39542;-34.932;138.594;2022-07-06T01:03:14;6.0;6.0;
53634;PMS5003;39542;-34.932;138.594;2022-07-06T01:03:49;6.0;6.0;
53634;PMS5003;39542;-34.932;138.594;2022-07-06T01:04:24;7.0;7.0;
53634;PMS5003;39542;-34.932;138.594;2022-07-06T01:04:59;5.0;5.0;
53634;PMS5003;39542;-34.932;138.594;2022-07-06T01:05:35;7.0;7.0;
53634;PMS5003;39542;-34.932;138.594;2022-07-06T01:06:09;8.0;8.0;
53634;PMS5003;39542;-34.932;138.594;2022-07-06T01:06:44;6.0;6.0;
53634;PMS5003;39542;-34.932;138.594;2022-07-06T01:07:19;6.0;6.0;
53634;PMS5003;39542;-34.932;138.594;2022-07-06T01:07:54;7.0;7.0;
53634;PMS5003;39542;-34.932;138.594;2022-07-06T01:08:29;9.0;7.0;
53634;PMS5003;39542;-34.932;138.594;2022-07-06T01:09:04;6.0;6.0;
53634;PMS5003;39542;-34.932;138.594;2022-07-06T01:09:39;8.0;8.0;
53634;PMS5003;39542;-34.932;138.594;2022-07-06T01:10:14;8.0;8.0;
53634;PMS5003;39542;-34.932;138.594;2022-07-06T01:10:50;7.0;7.0;
53634;PMS5003;39542;-34.932;138.594;2022-07-06T01:11:25;6.0;6.0;
53634;PMS5003;39542;-34.932;138.594;2022-07-06T01:12:00;4.0;3.0;
53634;PMS5003;39542;-34.932;138.594;2022-07-06T01:12:36;6.0;6.0;
53634;PMS5003;39542;-34.932;138.594;2022-07-06T01:13:12;8.0;7.0;
53634;PMS5003;39542;-34.932;138.594;2022-07-06T01:13:46;4.0;4.0;
53634;PMS5003;39542;-34.932;138.594;2022-07-06T01:14:21;6.0;6.0;
53634;PMS5003;39542;-34.932;138.594;2022-07-06T01:14:57;6.0;6.0;
53634;PMS5003;39542;-34.932;138.594;2022-07-06T01:15:31;5.0;5.0;
53634;PMS5003;39542;-34.932;138.594;2022-07-06T01:16:05;6.0;6.0;
53634;PMS5003;39542;-34.932;138.594;2022-07-06T01:16:40;7.0;6.0;
53634;PMS5003;39542;-34.932;138.594;2022-07-06T01:17:15;8.0;6.0;
53634;PMS5003;39542;-34.932;138.594;2022-07-06T01:17:50;5.0;5.0;
53634;PMS5003;39542;-34.932;138.594;2022-07-06T01:18:25;6.0;6.0;
53634;PMS5003;39542;-34.932;138.594;2022-07-06T01:19:00;8.0;8.0;
53634;PMS5003;39542;-34.932;138.594;2022-07-06T01:19:34;7.0;7.0;
53634;PMS5003;39542;-34.932;138.594;2022-07-06T01:20:09;6.0;6.0;
53634;PMS5003;39542;-34.932;138.594;2022-07-06T01:20:45;4.0;4.0;
53634;PMS5003;39542;-34.932;138.594;2022-07-06T01:21:20;5.0;5.0;
53634;PMS5003;39542;-34.932;138.594;2022-07-06T01:21:54;6.0;6.0;
53634;PMS5003;39542;-34.932;138.594;2022-07-06T01:22:29;7.0;7.0;
53634;PMS5003;39542;-34.932;138.594;2022-07-06T01:23:04;6.0;6.0;
53634;PMS5003;39542;-34.932;138.594;2022-07-06T01:23:40;7.0;7.0;
53634;PMS5003;39542;-34.932;138.594;2022-07-06T01:24:15;5.0;5.0;
53634;PMS5003;39542;-34.932;138.594;2022-07-06T01:24:50;8.0;6.0;
53634;PMS5003;39542;-34.932;138.594;2022-07-06T01:25:24;6.0;6.0;
53634;PMS5003;39542;-34.932;138.594;2022-07-06T01:25:59;6.0;6.0;
53634;PMS5003;39542;-34.932;138.594;2022-07-06T01:26:33;6.0;6.0;
53634;PMS5003;39542;-34.932;138.594;2022-07-06T01:27:07;5.0;5.0;
53634;PMS5003;39542;-34.932;138.594;2022-07-06T01:27:42;6.0;6.0;
53634;PMS5003;39542;-34.932;138.594;2022-07-06T01:28:18;5.0;5.0;
53634;PMS5003;39542;-34.932;138.594;2022-07-06T01:28:52;5.0;4.0;
53634;PMS5003;39542;-34.932;138.594;2022-07-06T01:29:27;7.0;6.0;
53634;PMS5003;39542;-34.932;138.594;2022-07-06T01:30:01;7.0;7.0;
53634;PMS5003;39542;-34.932;138.594;2022-07-06T01:30:37;9.0;6.0;
53634;PMS5003;39542;-34.932;138.594;2022-07-06T01:31:15;7.0;7.0;
53634;PMS5003;39542;-34.932;138.594;2022-07-06T01:31:51;7.0;7.0;
53634;PMS5003;39542;-34.932;138.594;2022-07-06T01:32:25;6.0;6.0;
53634;PMS5003;39542;-34.932;138.594;2022-07-06T01:32:59;6.0;6.0;
53634;PMS5003;39542;-34.932;138.594;2022-07-06T01:33:34;7.0;7.0;
53634;PMS5003;39542;-34.932;138.594;2022-07-06T01:34:08;5.0;5.0;
53634;PMS5003;39542;-34.932;138.594;2022-07-06T01:34:43;7.0;7.0;
53634;PMS5003;39542;-34.932;138.594;2022-07-06T01:35:18;6.0;6.0;
53634;PMS5003;39542;-34.932;138.594;2022-07-06T01:35:53;4.0;4.0;
53634;PMS5003;39542;-34.932;138.594;2022-07-06T01:36:28;4.0;4.0;
53634;PMS5003;39542;-34.932;138.594;2022-07-06T01:37:02;6.0;6.0;
53634;PMS5003;39542;-34.932;138.594;2022-07-06T01:37:37;5.0;5.0;
53634;PMS5003;39542;-34.932;138.594;2022-07-06T01:38:13;6.0;6.0;
53634;PMS5003;39542;-34.932;138.594;2022-07-06T01:38:48;5.0;5.0;
53634;PMS5003;39542;-34.932;138.594;2022-07-06T01:39:23;6.0;6.0;
53634;PMS5003;39542;-34.932;138.594;2022-07-06T01:39:58;4.0;4.0;
53634;PMS5003;39542;-34.932;138.594;2022-07-06T01:40:33;4.0;4.0;
53634;PMS5003;39542;-34.932;138.594;2022-07-06T01:41:07;5.0;5.0;
53634;PMS5003;39542;-34.932;138.594;2022-07-06T01:41:41;5.0;5.0;
53634;PMS5003;39542;-34.932;138.594;2022-07-06T01:42:16;8.0;6.0;
53634;PMS5003;39542;-34.932;138.594;2022-07-06T01:42:51;5.0;5.0;
53634;PMS5003;39542;-34.932;138.594;2022-07-06T01:43:26;7.0;7.0;
53634;PMS5003;39542;-34.932;138.594;2022-07-06T01:44:00;6.0;5.0;
53634;PMS5003;39542;-34.932;138.594;2022-07-06T01:44:35;5.0;5.0;
53634;PMS5003;39542;-34.932;138.594;2022-07-06T01:45:10;5.0;5.0;
53634;PMS5003;39542;-34.932;138.594;2022-07-06T01:45:45;6.0;6.0;
53634;PMS5003;39542;-34.932;138.594;2022-07-06T01:46:19;6.0;6.0;
53634;PMS5003;39542;-34.932;138.594;2022-07-06T01:46:53;5.0;5.0;
53634;PMS5003;39542;-34.932;138.594;2022-07-06T01:47:28;5.0;5.0;
53634;PMS5003;39542;-34.932;138.594;2022-07-06T01:48:05;6.0;6.0;
53634;PMS5003;39542;-34.932;138.594;2022-07-06T01:48:41;6.0;6.0;
53634;PMS5003;39542;-34.932;138.594;2022-07-06T01:49:15;5.0;5.0;
53634;PMS5003;39542;-34.932;138.594;2022-07-06T01:49:49;5.0;5.0;
53634;PMS5003;39542;-34.932;138.594;2022-07-06T01:50:23;7.0;6.0;
53634;PMS5003;39542;-34.932;138.594;2022-07-06T01:50:57;6.0;4.0;
53634;PMS5003;39542;-34.932;138.594;2022-07-06T01:51:32;6.0;5.0;
53634;PMS5003;39542;-34.932;138.594;2022-07-06T01:52:06;5.0;5.0;
53634;PMS5003;39542;-34.932;138.594;2022-07-06T01:52:41;4.0;4.0;
53634;PMS5003;39542;-34.932;138.594;2022-07-06T01:53:15;6.0;6.0;
53634;PMS5003;39542;-34.932;138.594;2022-07-06T01:53:50;6.0;6.0;
53634;PMS5003;39542;-34.932;138.594;2022-07-06T01:54:24;8.0;8.0;
53634;PMS5003;39542;-34.932;138.594;2022-07-06T01:55:00;4.0;4.0;
53634;PMS5003;39542;-34.932;138.594;2022-07-06T01:55:35;5.0;4.0;
53634;PMS5003;39542;-34.932;138.594;2022-07-06T01:56:10;4.0;4.0;
53634;PMS5003;39542;-34.932;138.594;2022-07-06T01:56:44;4.0;4.0;
53634;PMS5003;39542;-34.932;138.594;2022-07-06T01:57:19;6.0;4.0;
53634;PMS5003;39542;-34.932;138.594;2022-07-06T01:57:53;4.0;4.0;
53634;PMS5003;39542;-34.932;138.594;2022-07-06T01:58:28;5.0;5.0;
53634;PMS5003;39542;-34.932;138.594;2022-07-06T01:59:02;7.0;5.0;
53634;PMS5003;39542;-34.932;138.594;2022-07-06T01:59:37;5.0;5.0;
53634;PMS5003;39542;-34.932;138.594;2022-07-06T02:00:11;5.0;5.0;
53634;PMS5003;39542;-34.932;138.594;2022-07-06T02:00:46;5.0;5.0;
53634;PMS5003;39542;-34.932;138.594;2022-07-06T02:01:20;4.0;4.0;
53634;PMS5003;39542;-34.932;138.594;2022-07-06T02:01:55;6.0;6.0;
53634;PMS5003;39542;-34.932;138.594;2022-07-06T02:02:31;5.0;5.0;
53634;PMS5003;39542;-34.932;138.594;2022-07-06T02:03:05;5.0;5.0;
53634;PMS5003;39542;-34.932;138.594;2022-07-06T02:03:39;6.0;6.0;
53634;PMS5003;39542;-34.932;138.594;2022-07-06T02:04:14;5.0;5.0;
53634;PMS5003;39542;-34.932;138.594;2022-07-06T02:04:48;4.0;4.0;
53634;PMS5003;39542;-34.932;138.594;2022-07-06T02:05:23;4.0;3.0;
53634;PMS5003;39542;-34.932;138.594;2022-07-06T02:05:58;3.0;3.0;
53634;PMS5003;39542;-34.932;138.594;2022-07-06T02:06:31;6.0;5.0;
53634;PMS5003;39542;-34.932;138.594;2022-07-06T02:07:06;5.0;5.0;
53634;PMS5003;39542;-34.932;138.594;2022-07-06T02:07:40;4.0;4.0;
53634;PMS5003;39542;-34.932;138.594;2022-07-06T02:08:14;4.0;4.0;
53634;PMS5003;39542;-34.932;138.594;2022-07-06T02:08:49;5.0;5.0;
53634;PMS5003;39542;-34.932;138.594;2022-07-06T02:09:24;6.0;4.0;
53634;PMS5003;39542;-34.932;138.594;2022-07-06T02:09:59;4.0;4.0;
53634;PMS5003;39542;-34.932;138.594;2022-07-06T02:10:33;5.0;5.0;
53634;PMS5003;39542;-34.932;138.594;2022-07-06T02:11:08;6.0;6.0;
53634;PMS5003;39542;-34.932;138.594;2022-07-06T02:11:43;4.0;4.0;
53634;PMS5003;39542;-34.932;138.594;2022-07-06T02:12:18;3.0;3.0;
53634;PMS5003;39542;-34.932;138.594;2022-07-06T02:12:52;5.0;5.0;
53634;PMS5003;39542;-34.932;138.594;2022-07-06T02:13:27;4.0;4.0;
53634;PMS5003;39542;-34.932;138.594;2022-07-06T02:14:02;4.0;4.0;
53634;PMS5003;39542;-34.932;138.594;2022-07-06T02:14:36;5.0;5.0;
53634;PMS5003;39542;-34.932;138.594;2022-07-06T02:15:10;6.0;6.0;
53634;PMS5003;39542;-34.932;138.594;2022-07-06T02:15:45;5.0;5.0;
53634;PMS5003;39542;-34.932;138.594;2022-07-06T02:16:20;3.0;3.0;
53634;PMS5003;39542;-34.932;138.594;2022-07-06T02:16:54;4.0;4.0;
53634;PMS5003;39542;-34.932;138.594;2022-07-06T02:17:29;7.0;7.0;
53634;PMS5003;39542;-34.932;138.594;2022-07-06T02:18:03;4.0;4.0;
53634;PMS5003;39542;-34.932;138.594;2022-07-06T02:18:37;5.0;3.0;
53634;PMS5003;39542;-34.932;138.594;2022-07-06T02:19:12;6.0;6.0;
53634;PMS5003;39542;-34.932;138.594;2022-07-06T02:19:47;4.0;4.0;
53634;PMS5003;39542;-34.932;138.594;2022-07-06T02:20:21;4.0;4.0;
53634;PMS5003;39542;-34.932;138.594;2022-07-06T02:20:56;4.0;4.0;
53634;PMS5003;39542;-34.932;138.594;2022-07-06T02:21:30;6.0;6.0;
53634;PMS5003;39542;-34.932;138.594;2022-07-06T02:22:04;4.0;4.0;
53634;PMS5003;39542;-34.932;138.594;2022-07-06T02:22:39;4.0;4.0;
53634;PMS5003;39542;-34.932;138.594;2022-07-06T02:23:13;6.0;5.0;
53634;PMS5003;39542;-34.932;138.594;2022-07-06T02:23:48;4.0;4.0;
53634;PMS5003;39542;-34.932;138.594;2022-07-06T02:24:23;6.0;6.0;
53634;PMS5003;39542;-34.932;138.594;2022-07-06T02:24:57;4.0;4.0;
53634;PMS5003;39542;-34.932;138.594;2022-07-06T02:25:32;5.0;5.0;
53634;PMS5003;39542;-34.932;138.594;2022-07-06T02:26:06;7.0;7.0;
53634;PMS5003;39542;-34.932;138.594;2022-07-06T02:26:40;6.0;6.0;
53634;PMS5003;39542;-34.932;138.594;2022-07-06T02:27:14;4.0;4.0;
53634;PMS5003;39542;-34.932;138.594;2022-07-06T02:27:49;7.0;6.0;
53634;PMS5003;39542;-34.932;138.594;2022-07-06T02:28:23;6.0;5.0;
53634;PMS5003;39542;-34.932;138.594;2022-07-06T02:28:58;6.0;6.0;
53634;PMS5003;39542;-34.932;138.594;2022-07-06T02:29:34;7.0;5.0;
53634;PMS5003;39542;-34.932;138.594;2022-07-06T02:30:08;3.0;3.0;
53634;PMS5003;39542;-34.932;138.594;2022-07-06T02:30:43;5.0;5.0;
53634;PMS5003;39542;-34.932;138.594;2022-07-06T02:31:17;6.0;3.0;
53634;PMS5003;39542;-34.932;138.594;2022-07-06T02:31:51;4.0;4.0;
53634;PMS5003;39542;-34.932;138.594;2022-07-06T02:32:25;5.0;5.0;
53634;PMS5003;39542;-34.932;138.594;2022-07-06T02:33:00;6.0;5.0;
53634;PMS5003;39542;-34.932;138.594;2022-07-06T02:33:34;5.0;4.0;
53634;PMS5003;39542;-34.932;138.594;2022-07-06T02:34:08;5.0;3.0;
53634;PMS5003;39542;-34.932;138.594;2022-07-06T02:34:43;5.0;4.0;
53634;PMS5003;39542;-34.932;138.594;2022-07-06T02:35:17;4.0;4.0;
53634;PMS5003;39542;-34.932;138.594;2022-07-06T02:35:52;5.0;5.0;
53634;PMS5003;39542;-34.932;138.594;2022-07-06T02:36:26;6.0;5.0;
53634;PMS5003;39542;-34.932;138.594;2022-07-06T02:37:01;5.0;3.0;
53634;PMS5003;39542;-34.932;138.594;2022-07-06T02:37:36;3.0;3.0;
53634;PMS5003;39542;-34.932;138.594;2022-07-06T02:38:11;5.0;5.0;
53634;PMS5003;39542;-34.932;138.594;2022-07-06T02:38:45;4.0;4.0;
53634;PMS5003;39542;-34.932;138.594;2022-07-06T02:39:20;5.0;2.0;
53634;PMS5003;39542;-34.932;138.594;2022-07-06T02:39:55;3.0;3.0;
53634;PMS5003;39542;-34.932;138.594;2022-07-06T02:40:29;4.0;4.0;
53634;PMS5003;39542;-34.932;138.594;2022-07-06T02:41:03;4.0;4.0;
53634;PMS5003;39542;-34.932;138.594;2022-07-06T02:41:38;5.0;5.0;
53634;PMS5003;39542;-34.932;138.594;2022-07-06T02:42:12;3.0;3.0;
53634;PMS5003;39542;-34.932;138.594;2022-07-06T02:42:47;4.0;3.0;
53634;PMS5003;39542;-34.932;138.594;2022-07-06T02:43:21;4.0;4.0;
53634;PMS5003;39542;-34.932;138.594;2022-07-06T02:43:55;5.0;5.0;
53634;PMS5003;39542;-34.932;138.594;2022-07-06T02:44:30;5.0;5.0;
53634;PMS5003;39542;-34.932;138.594;2022-07-06T02:45:05;2.0;2.0;
53634;PMS5003;39542;-34.932;138.594;2022-07-06T02:45:40;4.0;4.0;
53634;PMS5003;39542;-34.932;138.594;2022-07-06T02:46:15;2.0;2.0;
53634;PMS5003;39542;-34.932;138.594;2022-07-06T02:46:50;4.0;4.0;
53634;PMS5003;39542;-34.932;138.594;2022-07-06T02:47:24;3.0;3.0;
53634;PMS5003;39542;-34.932;138.594;2022-07-06T02:47:59;4.0;4.0;
53634;PMS5003;39542;-34.932;138.594;2022-07-06T02:48:34;3.0;3.0;
53634;PMS5003;39542;-34.932;138.594;2022-07-06T02:49:08;4.0;4.0;
53634;PMS5003;39542;-34.932;138.594;2022-07-06T02:49:43;4.0;4.0;
53634;PMS5003;39542;-34.932;138.594;2022-07-06T02:50:17;7.0;5.0;
53634;PMS5003;39542;-34.932;138.594;2022-07-06T02:50:51;5.0;4.0;
53634;PMS5003;39542;-34.932;138.594;2022-07-06T02:51:26;2.0;2.0;
53634;PMS5003;39542;-34.932;138.594;2022-07-06T02:52:00;7.0;6.0;
53634;PMS5003;39542;-34.932;138.594;2022-07-06T02:52:35;3.0;3.0;
53634;PMS5003;39542;-34.932;138.594;2022-07-06T02:53:10;4.0;4.0;
53634;PMS5003;39542;-34.932;138.594;2022-07-06T02:53:45;4.0;4.0;
53634;PMS5003;39542;-34.932;138.594;2022-07-06T02:54:19;5.0;5.0;
53634;PMS5003;39542;-34.932;138.594;2022-07-06T02:54:53;4.0;4.0;
53634;PMS5003;39542;-34.932;138.594;2022-07-06T02:55:28;5.0;4.0;
53634;PMS5003;39542;-34.932;138.594;2022-07-06T02:56:02;5.0;3.0;
53634;PMS5003;39542;-34.932;138.594;2022-07-06T02:56:37;3.0;3.0;
53634;PMS5003;39542;-34.932;138.594;2022-07-06T02:57:12;3.0;3.0;
53634;PMS5003;39542;-34.932;138.594;2022-07-06T02:57:46;5.0;5.0;
53634;PMS5003;39542;-34.932;138.594;2022-07-06T02:58:20;4.0;4.0;
53634;PMS5003;39542;-34.932;138.594;2022-07-06T02:58:55;5.0;5.0;
53634;PMS5003;39542;-34.932;138.594;2022-07-06T02:59:30;3.0;3.0;
53634;PMS5003;39542;-34.932;138.594;2022-07-06T03:00:06;4.0;4.0;
53634;PMS5003;39542;-34.932;138.594;2022-07-06T03:00:41;4.0;4.0;
53634;PMS5003;39542;-34.932;138.594;2022-07-06T03:01:16;3.0;3.0;
53634;PMS5003;39542;-34.932;138.594;2022-07-06T03:01:49;4.0;4.0;
53634;PMS5003;39542;-34.932;138.594;2022-07-06T03:02:24;3.0;3.0;
53634;PMS5003;39542;-34.932;138.594;2022-07-06T03:02:59;4.0;4.0;
53634;PMS5003;39542;-34.932;138.594;2022-07-06T03:03:33;4.0;4.0;
53634;PMS5003;39542;-34.932;138.594;2022-07-06T03:04:08;4.0;4.0;
53634;PMS5003;39542;-34.932;138.594;2022-07-06T03:04:42;6.0;4.0;
53634;PMS5003;39542;-34.932;138.594;2022-07-06T03:05:16;4.0;4.0;
53634;PMS5003;39542;-34.932;138.594;2022-07-06T03:05:51;3.0;3.0;
53634;PMS5003;39542;-34.932;138.594;2022-07-06T03:06:25;4.0;4.0;
53634;PMS5003;39542;-34.932;138.594;2022-07-06T03:07:00;4.0;4.0;
53634;PMS5003;39542;-34.932;138.594;2022-07-06T03:07:35;6.0;6.0;
53634;PMS5003;39542;-34.932;138.594;2022-07-06T03:08:10;4.0;4.0;
53634;PMS5003;39542;-34.932;138.594;2022-07-06T03:08:44;4.0;4.0;
53634;PMS5003;39542;-34.932;138.594;2022-07-06T03:09:18;5.0;5.0;
53634;PMS5003;39542;-34.932;138.594;2022-07-06T03:09:52;3.0;3.0;
53634;PMS5003;39542;-34.932;138.594;2022-07-06T03:10:27;5.0;5.0;
53634;PMS5003;39542;-34.932;138.594;2022-07-06T03:11:02;4.0;4.0;
53634;PMS5003;39542;-34.932;138.594;2022-07-06T03:11:36;4.0;4.0;
53634;PMS5003;39542;-34.932;138.594;2022-07-06T03:12:11;5.0;4.0;
53634;PMS5003;39542;-34.932;138.594;2022-07-06T03:12:45;4.0;4.0;
53634;PMS5003;39542;-34.932;138.594;2022-07-06T03:13:20;3.0;3.0;
53634;PMS5003;39542;-34.932;138.594;2022-07-06T03:13:54;3.0;3.0;
53634;PMS5003;39542;-34.932;138.594;2022-07-06T03:14:29;5.0;5.0;
53634;PMS5003;39542;-34.932;138.594;2022-07-06T03:15:04;3.0;3.0;
53634;PMS5003;39542;-34.932;138.594;2022-07-06T03:15:39;4.0;4.0;
53634;PMS5003;39542;-34.932;138.594;2022-07-06T03:16:13;5.0;5.0;
53634;PMS5003;39542;-34.932;138.594;2022-07-06T03:16:48;4.0;4.0;
53634;PMS5003;39542;-34.932;138.594;2022-07-06T03:17:22;3.0;3.0;
53634;PMS5003;39542;-34.932;138.594;2022-07-06T03:17:57;2.0;2.0;
53634;PMS5003;39542;-34.932;138.594;2022-07-06T03:18:31;5.0;5.0;
53634;PMS5003;39542;-34.932;138.594;2022-07-06T03:19:05;5.0;5.0;
53634;PMS5003;39542;-34.932;138.594;2022-07-06T03:19:39;5.0;3.0;
53634;PMS5003;39542;-34.932;138.594;2022-07-06T03:20:14;4.0;4.0;
53634;PMS5003;39542;-34.932;138.594;2022-07-06T03:20:49;5.0;5.0;
53634;PMS5003;39542;-34.932;138.594;2022-07-06T03:21:23;5.0;5.0;
53634;PMS5003;39542;-34.932;138.594;2022-07-06T03:21:58;4.0;3.0;
53634;PMS5003;39542;-34.932;138.594;2022-07-06T03:22:32;3.0;3.0;
53634;PMS5003;39542;-34.932;138.594;2022-07-06T03:23:06;4.0;4.0;
53634;PMS5003;39542;-34.932;138.594;2022-07-06T03:23:41;4.0;3.0;
53634;PMS5003;39542;-34.932;138.594;2022-07-06T03:24:16;4.0;4.0;
53634;PMS5003;39542;-34.932;138.594;2022-07-06T03:24:50;4.0;4.0;
53634;PMS5003;39542;-34.932;138.594;2022-07-06T03:25:24;3.0;3.0;
53634;PMS5003;39542;-34.932;138.594;2022-07-06T03:25:59;3.0;3.0;
53634;PMS5003;39542;-34.932;138.594;2022-07-06T03:26:33;3.0;3.0;
53634;PMS5003;39542;-34.932;138.594;2022-07-06T03:27:07;5.0;5.0;
53634;PMS5003;39542;-34.932;138.594;2022-07-06T03:27:41;4.0;4.0;
53634;PMS5003;39542;-34.932;138.594;2022-07-06T03:28:16;4.0;4.0;
53634;PMS5003;39542;-34.932;138.594;2022-07-06T03:28:50;5.0;5.0;
53634;PMS5003;39542;-34.932;138.594;2022-07-06T03:29:24;4.0;4.0;
53634;PMS5003;39542;-34.932;138.594;2022-07-06T03:29:59;4.0;4.0;
53634;PMS5003;39542;-34.932;138.594;2022-07-06T03:30:33;4.0;3.0;
53634;PMS5003;39542;-34.932;138.594;2022-07-06T03:31:09;3.0;3.0;
53634;PMS5003;39542;-34.932;138.594;2022-07-06T03:31:43;5.0;5.0;
53634;PMS5003;39542;-34.932;138.594;2022-07-06T03:32:18;3.0;3.0;